首页
METAR-TAF:

METAR-TAF

机场 :

华沙肖邦机场

华沙, 波兰

纬度: 52-10N, 经度: 020-58E, 海拔: 106米

当前天气观测

该预报发布于29分钟前的01:30 UTC
风速4节,风向西转西北,在西北转西北之间变化
温度 3°C
湿度 100%
气压 1027 hPa
能見度: 0400
多云层高于100英尺

METAR: EPWA 220130Z 30004KT 270V330 0400 R33/0450N FG BKN001 03/03 Q1027 NOSIG

时间: 03:59 (01:59 UTC)

预报

该预报发布于2小时和29分钟前的23:30 UTC
预报有效从22日的 00点(UTC)到 22日的 24点(UTC)
风速3节,风向多变
能見度: 0800
多云层高于400英尺
短暂存在
从 22日的 00点(UTC)到 22日的 08点(UTC)
能見度: 0300
多云层高于100英尺
几率 40%
从 22日的 00点(UTC)到 22日的 08点(UTC)
能見度: 0100
成为
从 22日的 08点(UTC)到 22日的 10点(UTC)
风速10节,风向西南
能见度10公里或以上
散云层高于2000英尺
成为
从 22日的 16点(UTC)到 22日的 19点(UTC)
风速10节,风向西转西北
多云层高于1400英尺
小雨
短暂存在
从 22日的 19点(UTC)到 22日的 24点(UTC)
多云层高于700英尺

TAF: EPWA 212330Z 2200/2224 VRB03KT 0800 FG BKN004 TEMPO 2200/2208 0300 FG BKN001 PROB40 2200/2208 0100 FG BECMG 2208/2210 22010KT 9999 SCT020 BECMG 2216/2219 30010KT -RA BKN014 TEMPO 2219/2224 BKN007

超过4000个机场的气象观测和天气预报(METAR&TAF报告)。

可查询的气象台以黄色和红色小点在地图上表示。

将鼠标移到小点上方,可查看气象台名称。

然后点击查看天气观测和预报。

如需切换地图:点击带黑十字的绿色按钮放大地图;点击带横线的绿色按钮缩小地图;或者点击绿色箭头查看邻近地区的地图。


METAR-TAF: